sensor_id;sensor_type;location;lat;lon;timestamp;temperature;humidity
23147;DHT22;11742;53.532;-1.478;2023-03-14T00:01:39;12.90;83.10
23147;DHT22;11742;53.532;-1.478;2023-03-14T00:04:23;12.80;83.10
23147;DHT22;11742;53.532;-1.478;2023-03-14T00:07:09;12.80;83.20
23147;DHT22;11742;53.532;-1.478;2023-03-14T00:09:54;12.80;83.20
23147;DHT22;11742;53.532;-1.478;2023-03-14T00:12:38;12.80;83.20
23147;DHT22;11742;53.532;-1.478;2023-03-14T00:15:22;12.70;83.10
23147;DHT22;11742;53.532;-1.478;2023-03-14T00:18:06;12.70;83.10
23147;DHT22;11742;53.532;-1.478;2023-03-14T00:20:51;12.70;83.20
23147;DHT22;11742;53.532;-1.478;2023-03-14T00:23:36;12.70;83.20
23147;DHT22;11742;53.532;-1.478;2023-03-14T00:26:21;12.70;83.20
23147;DHT22;11742;53.532;-1.478;2023-03-14T00:29:05;12.60;83.10
23147;DHT22;11742;53.532;-1.478;2023-03-14T00:31:49;12.60;83.20
23147;DHT22;11742;53.532;-1.478;2023-03-14T00:34:33;12.60;83.20
23147;DHT22;11742;53.532;-1.478;2023-03-14T00:37:18;12.60;83.20
23147;DHT22;11742;53.532;-1.478;2023-03-14T00:40:02;12.50;83.10
23147;DHT22;11742;53.532;-1.478;2023-03-14T00:42:49;12.50;83.20
23147;DHT22;11742;53.532;-1.478;2023-03-14T00:45:33;12.50;83.10
23147;DHT22;11742;53.532;-1.478;2023-03-14T00:48:19;12.50;83.10
23147;DHT22;11742;53.532;-1.478;2023-03-14T00:51:04;12.50;83.20
23147;DHT22;11742;53.532;-1.478;2023-03-14T00:53:49;12.40;83.10
23147;DHT22;11742;53.532;-1.478;2023-03-14T00:56:33;12.40;83.10
23147;DHT22;11742;53.532;-1.478;2023-03-14T00:59:17;12.40;83.10
23147;DHT22;11742;53.532;-1.478;2023-03-14T01:02:01;12.40;83.10
23147;DHT22;11742;53.532;-1.478;2023-03-14T01:04:49;12.30;83.00
23147;DHT22;11742;53.532;-1.478;2023-03-14T01:07:33;12.30;83.00
23147;DHT22;11742;53.532;-1.478;2023-03-14T01:10:18;12.30;83.00
23147;DHT22;11742;53.532;-1.478;2023-03-14T01:13:02;12.30;83.00
23147;DHT22;11742;53.532;-1.478;2023-03-14T01:15:46;12.20;82.90
23147;DHT22;11742;53.532;-1.478;2023-03-14T01:18:30;12.20;82.90
23147;DHT22;11742;53.532;-1.478;2023-03-14T01:21:19;12.20;82.90
23147;DHT22;11742;53.532;-1.478;2023-03-14T01:24:03;12.20;82.90
23147;DHT22;11742;53.532;-1.478;2023-03-14T01:26:48;12.20;82.90
23147;DHT22;11742;53.532;-1.478;2023-03-14T01:29:32;12.10;82.90
23147;DHT22;11742;53.532;-1.478;2023-03-14T01:32:17;12.10;82.90
23147;DHT22;11742;53.532;-1.478;2023-03-14T01:35:01;12.10;82.80
23147;DHT22;11742;53.532;-1.478;2023-03-14T01:37:45;12.10;82.80
23147;DHT22;11742;53.532;-1.478;2023-03-14T01:40:29;12.00;82.70
23147;DHT22;11742;53.532;-1.478;2023-03-14T01:43:15;12.00;82.80
23147;DHT22;11742;53.532;-1.478;2023-03-14T01:57:22;11.90;82.80
23147;DHT22;11742;53.532;-1.478;2023-03-14T02:00:10;11.90;82.80
23147;DHT22;11742;53.532;-1.478;2023-03-14T02:02:58;11.80;82.70
23147;DHT22;11742;53.532;-1.478;2023-03-14T02:05:44;11.80;82.70
23147;DHT22;11742;53.532;-1.478;2023-03-14T02:08:28;11.80;82.70
23147;DHT22;11742;53.532;-1.478;2023-03-14T02:11:12;11.80;82.80
23147;DHT22;11742;53.532;-1.478;2023-03-14T02:13:57;11.70;82.70
23147;DHT22;11742;53.532;-1.478;2023-03-14T02:16:42;11.70;82.70
23147;DHT22;11742;53.532;-1.478;2023-03-14T02:19:49;11.70;82.70
23147;DHT22;11742;53.532;-1.478;2023-03-14T02:22:33;11.70;82.70
23147;DHT22;11742;53.532;-1.478;2023-03-14T02:28:08;11.60;82.80
23147;DHT22;11742;53.532;-1.478;2023-03-14T02:30:52;11.70;82.90
23147;DHT22;11742;53.532;-1.478;2023-03-14T02:33:36;11.60;82.80
23147;DHT22;11742;53.532;-1.478;2023-03-14T02:36:21;11.60;82.70
23147;DHT22;11742;53.532;-1.478;2023-03-14T02:39:20;11.50;82.60
23147;DHT22;11742;53.532;-1.478;2023-03-14T02:42:05;11.50;82.70
23147;DHT22;11742;53.532;-1.478;2023-03-14T02:44:54;11.50;82.60
23147;DHT22;11742;53.532;-1.478;2023-03-14T02:47:42;11.50;82.70
23147;DHT22;11742;53.532;-1.478;2023-03-14T02:50:28;11.50;82.70
23147;DHT22;11742;53.532;-1.478;2023-03-14T02:53:16;11.40;82.60
23147;DHT22;11742;53.532;-1.478;2023-03-14T02:56:01;11.40;82.60
23147;DHT22;11742;53.532;-1.478;2023-03-14T02:58:45;11.40;82.50
23147;DHT22;11742;53.532;-1.478;2023-03-14T03:01:29;11.40;82.60
23147;DHT22;11742;53.532;-1.478;2023-03-14T03:04:13;11.40;82.60
23147;DHT22;11742;53.532;-1.478;2023-03-14T03:06:57;11.40;82.60
23147;DHT22;11742;53.532;-1.478;2023-03-14T03:09:42;11.30;82.50
23147;DHT22;11742;53.532;-1.478;2023-03-14T03:12:26;11.30;82.50
23147;DHT22;11742;53.532;-1.478;2023-03-14T03:15:10;11.30;82.50
23147;DHT22;11742;53.532;-1.478;2023-03-14T03:17:54;11.20;82.50
23147;DHT22;11742;53.532;-1.478;2023-03-14T03:20:38;11.20;82.50
23147;DHT22;11742;53.532;-1.478;2023-03-14T03:23:23;11.20;82.50
23147;DHT22;11742;53.532;-1.478;2023-03-14T03:26:08;11.20;82.50
23147;DHT22;11742;53.532;-1.478;2023-03-14T03:28:53;11.20;82.60
23147;DHT22;11742;53.532;-1.478;2023-03-14T03:31:38;11.20;82.60
23147;DHT22;11742;53.532;-1.478;2023-03-14T03:34:22;11.10;82.50
23147;DHT22;11742;53.532;-1.478;2023-03-14T03:37:06;11.10;82.50
23147;DHT22;11742;53.532;-1.478;2023-03-14T03:39:51;11.10;82.50
23147;DHT22;11742;53.532;-1.478;2023-03-14T03:42:35;11.10;82.50
23147;DHT22;11742;53.532;-1.478;2023-03-14T03:45:19;11.00;82.50
23147;DHT22;11742;53.532;-1.478;2023-03-14T03:48:04;11.00;82.40
23147;DHT22;11742;53.532;-1.478;2023-03-14T03:50:48;11.00;82.40
23147;DHT22;11742;53.532;-1.478;2023-03-14T03:53:32;11.00;82.40
23147;DHT22;11742;53.532;-1.478;2023-03-14T03:56:16;11.00;82.50
23147;DHT22;11742;53.532;-1.478;2023-03-14T03:59:01;10.90;82.40
23147;DHT22;11742;53.532;-1.478;2023-03-14T04:01:45;10.90;82.40
23147;DHT22;11742;53.532;-1.478;2023-03-14T04:04:30;10.90;82.40
23147;DHT22;11742;53.532;-1.478;2023-03-14T04:07:14;10.90;82.30
23147;DHT22;11742;53.532;-1.478;2023-03-14T04:09:58;10.80;82.30
23147;DHT22;11742;53.532;-1.478;2023-03-14T04:12:42;10.80;82.30
23147;DHT22;11742;53.532;-1.478;2023-03-14T04:15:26;10.80;82.20
23147;DHT22;11742;53.532;-1.478;2023-03-14T04:18:11;10.80;82.30
23147;DHT22;11742;53.532;-1.478;2023-03-14T04:20:55;10.70;82.20
23147;DHT22;11742;53.532;-1.478;2023-03-14T04:23:39;10.70;82.20
23147;DHT22;11742;53.532;-1.478;2023-03-14T04:26:24;10.70;82.20
23147;DHT22;11742;53.532;-1.478;2023-03-14T04:29:08;10.70;82.20
23147;DHT22;11742;53.532;-1.478;2023-03-14T04:31:52;10.60;82.10
23147;DHT22;11742;53.532;-1.478;2023-03-14T04:34:36;10.60;82.10
23147;DHT22;11742;53.532;-1.478;2023-03-14T04:37:21;10.60;82.20
23147;DHT22;11742;53.532;-1.478;2023-03-14T04:40:05;10.60;82.20
23147;DHT22;11742;53.532;-1.478;2023-03-14T04:42:50;10.60;82.20
23147;DHT22;11742;53.532;-1.478;2023-03-14T04:45:34;10.50;82.10
23147;DHT22;11742;53.532;-1.478;2023-03-14T04:48:19;10.50;82.20
23147;DHT22;11742;53.532;-1.478;2023-03-14T04:51:03;10.50;82.20
23147;DHT22;11742;53.532;-1.478;2023-03-14T04:53:47;10.50;82.20
23147;DHT22;11742;53.532;-1.478;2023-03-14T04:56:31;10.50;82.20
23147;DHT22;11742;53.532;-1.478;2023-03-14T04:59:16;10.40;82.20
23147;DHT22;11742;53.532;-1.478;2023-03-14T05:02:00;10.40;82.30
23147;DHT22;11742;53.532;-1.478;2023-03-14T05:04:44;10.40;82.20
23147;DHT22;11742;53.532;-1.478;2023-03-14T05:07:29;10.40;82.20
23147;DHT22;11742;53.532;-1.478;2023-03-14T05:10:13;10.40;82.30
23147;DHT22;11742;53.532;-1.478;2023-03-14T05:12:57;10.30;82.10
23147;DHT22;11742;53.532;-1.478;2023-03-14T05:15:41;10.30;82.20
23147;DHT22;11742;53.532;-1.478;2023-03-14T05:18:25;10.30;82.10
23147;DHT22;11742;53.532;-1.478;2023-03-14T05:21:10;10.30;82.10
23147;DHT22;11742;53.532;-1.478;2023-03-14T05:23:54;10.30;82.10
23147;DHT22;11742;53.532;-1.478;2023-03-14T05:26:38;10.20;82.10
23147;DHT22;11742;53.532;-1.478;2023-03-14T05:29:22;10.20;82.10
23147;DHT22;11742;53.532;-1.478;2023-03-14T05:32:06;10.20;82.10
23147;DHT22;11742;53.532;-1.478;2023-03-14T05:34:51;10.20;82.10
23147;DHT22;11742;53.532;-1.478;2023-03-14T05:37:35;10.20;82.10
23147;DHT22;11742;53.532;-1.478;2023-03-14T05:40:19;10.10;82.10
23147;DHT22;11742;53.532;-1.478;2023-03-14T05:43:03;10.10;82.10
23147;DHT22;11742;53.532;-1.478;2023-03-14T05:45:47;10.10;82.10
23147;DHT22;11742;53.532;-1.478;2023-03-14T05:48:32;10.10;82.10
23147;DHT22;11742;53.532;-1.478;2023-03-14T05:51:16;10.10;82.10
23147;DHT22;11742;53.532;-1.478;2023-03-14T05:54:00;10.10;82.00
23147;DHT22;11742;53.532;-1.478;2023-03-14T05:56:44;10.00;82.00
23147;DHT22;11742;53.532;-1.478;2023-03-14T05:59:29;10.00;82.00
23147;DHT22;11742;53.532;-1.478;2023-03-14T06:02:13;10.00;82.00
23147;DHT22;11742;53.532;-1.478;2023-03-14T06:04:57;10.00;82.00
23147;DHT22;11742;53.532;-1.478;2023-03-14T06:07:41;9.90;81.90
23147;DHT22;11742;53.532;-1.478;2023-03-14T06:10:26;9.90;81.90
23147;DHT22;11742;53.532;-1.478;2023-03-14T06:13:10;9.90;81.90
23147;DHT22;11742;53.532;-1.478;2023-03-14T06:15:54;9.90;82.00
23147;DHT22;11742;53.532;-1.478;2023-03-14T06:18:38;9.80;81.90
23147;DHT22;11742;53.532;-1.478;2023-03-14T06:21:23;9.80;81.90
23147;DHT22;11742;53.532;-1.478;2023-03-14T06:24:07;9.80;81.90
23147;DHT22;11742;53.532;-1.478;2023-03-14T06:26:51;9.80;81.90
23147;DHT22;11742;53.532;-1.478;2023-03-14T06:29:35;9.80;81.90
23147;DHT22;11742;53.532;-1.478;2023-03-14T06:32:20;9.80;81.90
23147;DHT22;11742;53.532;-1.478;2023-03-14T06:35:04;9.70;82.60
23147;DHT22;11742;53.532;-1.478;2023-03-14T06:37:48;9.70;81.80
23147;DHT22;11742;53.532;-1.478;2023-03-14T06:40:32;9.70;81.80
23147;DHT22;11742;53.532;-1.478;2023-03-14T06:43:17;9.70;81.80
23147;DHT22;11742;53.532;-1.478;2023-03-14T06:46:01;9.70;81.70
23147;DHT22;11742;53.532;-1.478;2023-03-14T06:48:45;9.60;81.60
23147;DHT22;11742;53.532;-1.478;2023-03-14T06:51:29;9.60;81.60
23147;DHT22;11742;53.532;-1.478;2023-03-14T06:54:13;9.60;81.60
23147;DHT22;11742;53.532;-1.478;2023-03-14T06:56:58;9.60;81.50
23147;DHT22;11742;53.532;-1.478;2023-03-14T06:59:42;9.50;81.50
23147;DHT22;11742;53.532;-1.478;2023-03-14T07:02:26;9.50;81.50
23147;DHT22;11742;53.532;-1.478;2023-03-14T07:05:10;9.50;81.50
23147;DHT22;11742;53.532;-1.478;2023-03-14T07:07:55;9.50;81.50
23147;DHT22;11742;53.532;-1.478;2023-03-14T07:10:39;9.40;81.50
23147;DHT22;11742;53.532;-1.478;2023-03-14T07:13:23;9.40;81.60
23147;DHT22;11742;53.532;-1.478;2023-03-14T07:16:07;9.40;81.70
23147;DHT22;11742;53.532;-1.478;2023-03-14T07:18:52;9.40;81.70
23147;DHT22;11742;53.532;-1.478;2023-03-14T07:21:36;9.40;81.80
23147;DHT22;11742;53.532;-1.478;2023-03-14T07:24:20;9.30;81.80
23147;DHT22;11742;53.532;-1.478;2023-03-14T07:27:04;9.30;81.90
23147;DHT22;11742;53.532;-1.478;2023-03-14T07:29:48;9.30;81.90
23147;DHT22;11742;53.532;-1.478;2023-03-14T07:32:32;9.40;82.00
23147;DHT22;11742;53.532;-1.478;2023-03-14T07:35:17;9.30;82.00
23147;DHT22;11742;53.532;-1.478;2023-03-14T07:38:01;9.30;82.20
23147;DHT22;11742;53.532;-1.478;2023-03-14T07:40:45;9.30;82.20
23147;DHT22;11742;53.532;-1.478;2023-03-14T07:43:30;9.30;82.20
23147;DHT22;11742;53.532;-1.478;2023-03-14T07:46:14;9.30;82.30
23147;DHT22;11742;53.532;-1.478;2023-03-14T07:48:59;9.40;82.60
23147;DHT22;11742;53.532;-1.478;2023-03-14T07:51:43;9.40;82.70
23147;DHT22;11742;53.532;-1.478;2023-03-14T07:54:30;9.40;82.90
23147;DHT22;11742;53.532;-1.478;2023-03-14T07:57:15;9.40;83.10
23147;DHT22;11742;53.532;-1.478;2023-03-14T08:00:00;9.50;83.40
23147;DHT22;11742;53.532;-1.478;2023-03-14T08:02:44;9.50;83.70
23147;DHT22;11742;53.532;-1.478;2023-03-14T08:05:28;9.50;84.00
23147;DHT22;11742;53.532;-1.478;2023-03-14T08:08:13;9.50;85.30
23147;DHT22;11742;53.532;-1.478;2023-03-14T08:11:02;9.60;87.20
23147;DHT22;11742;53.532;-1.478;2023-03-14T08:13:46;9.60;87.80
23147;DHT22;11742;53.532;-1.478;2023-03-14T08:16:33;9.70;88.30
23147;DHT22;11742;53.532;-1.478;2023-03-14T08:19:17;9.70;88.60
23147;DHT22;11742;53.532;-1.478;2023-03-14T08:22:01;9.80;88.20
23147;DHT22;11742;53.532;-1.478;2023-03-14T08:24:46;9.80;88.10
23147;DHT22;11742;53.532;-1.478;2023-03-14T08:27:30;9.90;87.40
23147;DHT22;11742;53.532;-1.478;2023-03-14T08:30:15;9.90;86.70
23147;DHT22;11742;53.532;-1.478;2023-03-14T08:33:00;10.00;86.50
23147;DHT22;11742;53.532;-1.478;2023-03-14T08:35:44;10.00;87.00
23147;DHT22;11742;53.532;-1.478;2023-03-14T08:38:28;10.10;87.10
23147;DHT22;11742;53.532;-1.478;2023-03-14T08:41:13;10.10;86.90
23147;DHT22;11742;53.532;-1.478;2023-03-14T08:43:57;10.20;86.60
23147;DHT22;11742;53.532;-1.478;2023-03-14T08:46:41;10.20;86.40
23147;DHT22;11742;53.532;-1.478;2023-03-14T08:49:25;10.30;86.30
23147;DHT22;11742;53.532;-1.478;2023-03-14T08:52:10;10.30;86.20
23147;DHT22;11742;53.532;-1.478;2023-03-14T08:54:54;10.40;86.40
23147;DHT22;11742;53.532;-1.478;2023-03-14T08:57:38;10.40;86.50
23147;DHT22;11742;53.532;-1.478;2023-03-14T09:00:22;10.50;86.60
23147;DHT22;11742;53.532;-1.478;2023-03-14T09:03:07;10.60;86.60
23147;DHT22;11742;53.532;-1.478;2023-03-14T09:05:51;10.60;86.50
23147;DHT22;11742;53.532;-1.478;2023-03-14T09:08:36;10.70;86.40
23147;DHT22;11742;53.532;-1.478;2023-03-14T09:11:20;10.70;86.40
23147;DHT22;11742;53.532;-1.478;2023-03-14T09:14:05;10.80;86.50
23147;DHT22;11742;53.532;-1.478;2023-03-14T09:16:49;10.80;86.70
23147;DHT22;11742;53.532;-1.478;2023-03-14T09:19:34;10.90;86.80
23147;DHT22;11742;53.532;-1.478;2023-03-14T09:22:18;11.00;86.90
23147;DHT22;11742;53.532;-1.478;2023-03-14T09:25:03;11.00;87.00
23147;DHT22;11742;53.532;-1.478;2023-03-14T09:27:47;11.10;87.90
23147;DHT22;11742;53.532;-1.478;2023-03-14T09:30:31;11.10;87.10
23147;DHT22;11742;53.532;-1.478;2023-03-14T09:33:16;11.20;87.10
23147;DHT22;11742;53.532;-1.478;2023-03-14T09:36:01;11.30;87.10
23147;DHT22;11742;53.532;-1.478;2023-03-14T09:38:45;11.30;87.10
23147;DHT22;11742;53.532;-1.478;2023-03-14T09:41:31;11.40;87.10
23147;DHT22;11742;53.532;-1.478;2023-03-14T09:44:21;11.40;87.10
23147;DHT22;11742;53.532;-1.478;2023-03-14T09:47:07;11.50;87.00
23147;DHT22;11742;53.532;-1.478;2023-03-14T09:49:52;11.60;87.00
23147;DHT22;11742;53.532;-1.478;2023-03-14T09:52:37;11.60;87.00
23147;DHT22;11742;53.532;-1.478;2023-03-14T09:55:23;11.70;86.90
23147;DHT22;11742;53.532;-1.478;2023-03-14T09:58:13;11.80;87.00
23147;DHT22;11742;53.532;-1.478;2023-03-14T10:00:57;11.80;87.00
23147;DHT22;11742;53.532;-1.478;2023-03-14T10:03:42;11.90;87.10
23147;DHT22;11742;53.532;-1.478;2023-03-14T10:06:29;12.00;87.10
23147;DHT22;11742;53.532;-1.478;2023-03-14T10:09:21;12.00;87.20
23147;DHT22;11742;53.532;-1.478;2023-03-14T10:12:08;12.20;87.30
23147;DHT22;11742;53.532;-1.478;2023-03-14T10:14:53;12.20;87.30
23147;DHT22;11742;53.532;-1.478;2023-03-14T10:17:39;12.40;87.30
23147;DHT22;11742;53.532;-1.478;2023-03-14T10:20:28;12.40;87.30
23147;DHT22;11742;53.532;-1.478;2023-03-14T10:29:02;12.60;87.20
23147;DHT22;11742;53.532;-1.478;2023-03-14T10:31:48;12.70;87.30
23147;DHT22;11742;53.532;-1.478;2023-03-14T10:34:35;12.80;87.10
23147;DHT22;11742;53.532;-1.478;2023-03-14T10:37:23;12.80;87.00
23147;DHT22;11742;53.532;-1.478;2023-03-14T10:40:12;12.90;87.00
23147;DHT22;11742;53.532;-1.478;2023-03-14T10:43:00;12.90;85.70
23147;DHT22;11742;53.532;-1.478;2023-03-14T10:45:57;13.00;84.50
23147;DHT22;11742;53.532;-1.478;2023-03-14T10:48:42;13.00;85.30
23147;DHT22;11742;53.532;-1.478;2023-03-14T10:51:27;13.00;85.20
23147;DHT22;11742;53.532;-1.478;2023-03-14T10:54:14;13.10;84.70
23147;DHT22;11742;53.532;-1.478;2023-03-14T10:56:59;13.10;84.60
23147;DHT22;11742;53.532;-1.478;2023-03-14T10:59:44;13.20;85.10
23147;DHT22;11742;53.532;-1.478;2023-03-14T11:08:08;13.30;84.40
23147;DHT22;11742;53.532;-1.478;2023-03-14T11:10:54;13.30;83.50
23147;DHT22;11742;53.532;-1.478;2023-03-14T11:20:04;13.40;81.40
23147;DHT22;11742;53.532;-1.478;2023-03-14T11:22:59;13.50;81.30
23147;DHT22;11742;53.532;-1.478;2023-03-14T11:26:01;13.50;81.40
23147;DHT22;11742;53.532;-1.478;2023-03-14T11:28:49;13.50;80.60
23147;DHT22;11742;53.532;-1.478;2023-03-14T11:31:34;13.40;79.60
23147;DHT22;11742;53.532;-1.478;2023-03-14T11:34:26;13.40;78.80
23147;DHT22;11742;53.532;-1.478;2023-03-14T11:37:17;13.40;78.60
23147;DHT22;11742;53.532;-1.478;2023-03-14T11:43:06;13.40;80.00
23147;DHT22;11742;53.532;-1.478;2023-03-14T11:45:54;13.40;79.90
23147;DHT22;11742;53.532;-1.478;2023-03-14T11:51:40;13.50;81.30
23147;DHT22;11742;53.532;-1.478;2023-03-14T11:57:16;13.60;81.60
23147;DHT22;11742;53.532;-1.478;2023-03-14T12:00:20;13.70;81.70
23147;DHT22;11742;53.532;-1.478;2023-03-14T12:09:03;13.80;80.50
23147;DHT22;11742;53.532;-1.478;2023-03-14T12:14:36;13.90;80.80
23147;DHT22;11742;53.532;-1.478;2023-03-14T12:17:23;13.90;80.10
23147;DHT22;11742;53.532;-1.478;2023-03-14T12:23:02;14.00;79.40
23147;DHT22;11742;53.532;-1.478;2023-03-14T12:25:48;14.00;78.70
23147;DHT22;11742;53.532;-1.478;2023-03-14T12:29:09;14.10;78.90
23147;DHT22;11742;53.532;-1.478;2023-03-14T12:34:44;14.10;72.30
23147;DHT22;11742;53.532;-1.478;2023-03-14T12:40:20;13.80;76.40
23147;DHT22;11742;53.532;-1.478;2023-03-14T12:43:24;13.80;77.50
23147;DHT22;11742;53.532;-1.478;2023-03-14T12:49:03;13.90;77.10
23147;DHT22;11742;53.532;-1.478;2023-03-14T12:51:48;13.90;76.60
23147;DHT22;11742;53.532;-1.478;2023-03-14T13:00:23;14.10;76.80
23147;DHT22;11742;53.532;-1.478;2023-03-14T13:03:26;14.20;75.90
23147;DHT22;11742;53.532;-1.478;2023-03-14T13:12:16;14.20;72.40
23147;DHT22;11742;53.532;-1.478;2023-03-14T13:15:01;14.30;71.70
23147;DHT22;11742;53.532;-1.478;2023-03-14T13:17:47;14.30;72.10
23147;DHT22;11742;53.532;-1.478;2023-03-14T13:20:34;14.30;72.20
23147;DHT22;11742;53.532;-1.478;2023-03-14T13:23:20;14.30;72.40
23147;DHT22;11742;53.532;-1.478;2023-03-14T13:26:13;14.30;72.30
23147;DHT22;11742;53.532;-1.478;2023-03-14T13:28:58;14.30;71.30
23147;DHT22;11742;53.532;-1.478;2023-03-14T13:31:43;14.30;72.40
23147;DHT22;11742;53.532;-1.478;2023-03-14T13:34:28;14.20;73.10
23147;DHT22;11742;53.532;-1.478;2023-03-14T13:37:15;14.20;73.30
23147;DHT22;11742;53.532;-1.478;2023-03-14T13:39:59;14.20;72.80
23147;DHT22;11742;53.532;-1.478;2023-03-14T13:42:43;14.20;72.90
23147;DHT22;11742;53.532;-1.478;2023-03-14T13:45:28;14.10;72.80
23147;DHT22;11742;53.532;-1.478;2023-03-14T13:48:12;14.00;72.70
23147;DHT22;11742;53.532;-1.478;2023-03-14T13:51:03;14.00;72.30
23147;DHT22;11742;53.532;-1.478;2023-03-14T13:53:48;13.90;72.90
23147;DHT22;11742;53.532;-1.478;2023-03-14T13:56:33;13.80;73.10
23147;DHT22;11742;53.532;-1.478;2023-03-14T13:59:21;13.80;73.20
23147;DHT22;11742;53.532;-1.478;2023-03-14T14:02:12;13.80;73.20
23147;DHT22;11742;53.532;-1.478;2023-03-14T14:04:57;13.80;73.40
23147;DHT22;11742;53.532;-1.478;2023-03-14T14:07:42;13.70;73.30
23147;DHT22;11742;53.532;-1.478;2023-03-14T14:10:27;13.70;71.70
23147;DHT22;11742;53.532;-1.478;2023-03-14T14:13:14;13.60;73.00
23147;DHT22;11742;53.532;-1.478;2023-03-14T14:15:59;13.60;73.90
23147;DHT22;11742;53.532;-1.478;2023-03-14T14:18:45;13.50;74.20
23147;DHT22;11742;53.532;-1.478;2023-03-14T14:21:29;13.60;74.40
23147;DHT22;11742;53.532;-1.478;2023-03-14T14:24:15;13.50;74.50
23147;DHT22;11742;53.532;-1.478;2023-03-14T14:27:01;13.60;74.50
23147;DHT22;11742;53.532;-1.478;2023-03-14T14:29:56;13.60;73.80
23147;DHT22;11742;53.532;-1.478;2023-03-14T14:32:40;13.50;73.40
23147;DHT22;11742;53.532;-1.478;2023-03-14T14:35:26;13.60;73.50
23147;DHT22;11742;53.532;-1.478;2023-03-14T14:38:12;13.50;73.30
23147;DHT22;11742;53.532;-1.478;2023-03-14T14:40:59;13.50;73.00
23147;DHT22;11742;53.532;-1.478;2023-03-14T14:43:44;13.50;73.00
23147;DHT22;11742;53.532;-1.478;2023-03-14T14:46:30;13.40;73.20
23147;DHT22;11742;53.532;-1.478;2023-03-14T14:49:17;13.40;73.40
23147;DHT22;11742;53.532;-1.478;2023-03-14T14:55:21;13.40;73.70
23147;DHT22;11742;53.532;-1.478;2023-03-14T14:58:16;13.40;73.70
23147;DHT22;11742;53.532;-1.478;2023-03-14T15:01:07;13.30;73.80
23147;DHT22;11742;53.532;-1.478;2023-03-14T15:03:52;13.30;73.90
23147;DHT22;11742;53.532;-1.478;2023-03-14T15:06:37;13.30;73.90
23147;DHT22;11742;53.532;-1.478;2023-03-14T15:09:21;13.30;74.00
23147;DHT22;11742;53.532;-1.478;2023-03-14T15:12:06;13.20;74.10
23147;DHT22;11742;53.532;-1.478;2023-03-14T15:14:50;13.20;74.10
23147;DHT22;11742;53.532;-1.478;2023-03-14T15:17:34;13.20;74.00
23147;DHT22;11742;53.532;-1.478;2023-03-14T15:20:19;13.10;74.10
23147;DHT22;11742;53.532;-1.478;2023-03-14T15:23:14;13.10;74.20
23147;DHT22;11742;53.532;-1.478;2023-03-14T15:25:58;13.00;74.10
23147;DHT22;11742;53.532;-1.478;2023-03-14T15:28:43;13.00;74.20
23147;DHT22;11742;53.532;-1.478;2023-03-14T15:31:27;13.00;74.20
23147;DHT22;11742;53.532;-1.478;2023-03-14T15:34:11;13.00;74.40
23147;DHT22;11742;53.532;-1.478;2023-03-14T15:36:55;12.90;74.60
23147;DHT22;11742;53.532;-1.478;2023-03-14T15:39:40;12.90;74.60
23147;DHT22;11742;53.532;-1.478;2023-03-14T15:42:24;12.90;74.60
23147;DHT22;11742;53.532;-1.478;2023-03-14T15:45:08;12.90;74.70
23147;DHT22;11742;53.532;-1.478;2023-03-14T15:47:53;12.80;74.70
23147;DHT22;11742;53.532;-1.478;2023-03-14T15:50:37;12.80;74.80
23147;DHT22;11742;53.532;-1.478;2023-03-14T15:53:21;12.80;74.80
23147;DHT22;11742;53.532;-1.478;2023-03-14T15:56:07;12.70;74.70
23147;DHT22;11742;53.532;-1.478;2023-03-14T15:58:51;12.70;75.00
23147;DHT22;11742;53.532;-1.478;2023-03-14T16:01:35;12.70;75.30
23147;DHT22;11742;53.532;-1.478;2023-03-14T16:04:20;12.70;75.10
23147;DHT22;11742;53.532;-1.478;2023-03-14T16:07:04;12.70;75.10
23147;DHT22;11742;53.532;-1.478;2023-03-14T16:09:48;12.70;75.10
23147;DHT22;11742;53.532;-1.478;2023-03-14T16:12:33;12.70;75.30
23147;DHT22;11742;53.532;-1.478;2023-03-14T16:15:17;12.70;75.40
23147;DHT22;11742;53.532;-1.478;2023-03-14T16:18:01;12.70;75.60
23147;DHT22;11742;53.532;-1.478;2023-03-14T16:20:53;12.60;75.40
23147;DHT22;11742;53.532;-1.478;2023-03-14T16:23:38;12.70;75.50
23147;DHT22;11742;53.532;-1.478;2023-03-14T16:26:22;12.60;75.30
23147;DHT22;11742;53.532;-1.478;2023-03-14T16:29:06;12.60;75.40
23147;DHT22;11742;53.532;-1.478;2023-03-14T16:31:51;12.60;75.40
23147;DHT22;11742;53.532;-1.478;2023-03-14T16:34:38;12.60;75.40
23147;DHT22;11742;53.532;-1.478;2023-03-14T16:37:23;12.60;75.40
23147;DHT22;11742;53.532;-1.478;2023-03-14T16:40:07;12.60;75.30
23147;DHT22;11742;53.532;-1.478;2023-03-14T16:42:52;12.60;75.40
23147;DHT22;11742;53.532;-1.478;2023-03-14T16:45:36;12.60;75.30
23147;DHT22;11742;53.532;-1.478;2023-03-14T16:48:21;12.50;75.30
23147;DHT22;11742;53.532;-1.478;2023-03-14T16:51:05;12.50;75.20
23147;DHT22;11742;53.532;-1.478;2023-03-14T16:53:49;12.50;75.20
23147;DHT22;11742;53.532;-1.478;2023-03-14T16:56:33;12.50;75.00
23147;DHT22;11742;53.532;-1.478;2023-03-14T16:59:18;12.40;75.00
23147;DHT22;11742;53.532;-1.478;2023-03-14T17:02:02;12.40;75.30
23147;DHT22;11742;53.532;-1.478;2023-03-14T17:04:46;12.40;75.40
23147;DHT22;11742;53.532;-1.478;2023-03-14T17:07:31;12.40;75.60
23147;DHT22;11742;53.532;-1.478;2023-03-14T17:10:15;12.40;75.70
23147;DHT22;11742;53.532;-1.478;2023-03-14T17:13:00;12.40;75.70
23147;DHT22;11742;53.532;-1.478;2023-03-14T17:15:44;12.40;75.90
23147;DHT22;11742;53.532;-1.478;2023-03-14T17:18:29;12.40;75.80
23147;DHT22;11742;53.532;-1.478;2023-03-14T17:21:14;12.40;75.70
23147;DHT22;11742;53.532;-1.478;2023-03-14T17:23:58;12.40;75.50
23147;DHT22;11742;53.532;-1.478;2023-03-14T17:26:42;12.40;75.60
23147;DHT22;11742;53.532;-1.478;2023-03-14T17:29:26;12.30;75.30
23147;DHT22;11742;53.532;-1.478;2023-03-14T17:32:11;12.30;75.30
23147;DHT22;11742;53.532;-1.478;2023-03-14T17:34:55;12.20;75.30
23147;DHT22;11742;53.532;-1.478;2023-03-14T17:37:39;12.20;75.30
23147;DHT22;11742;53.532;-1.478;2023-03-14T17:40:24;12.20;75.20
23147;DHT22;11742;53.532;-1.478;2023-03-14T17:43:08;12.20;75.30
23147;DHT22;11742;53.532;-1.478;2023-03-14T17:45:56;12.20;75.40
23147;DHT22;11742;53.532;-1.478;2023-03-14T17:48:41;12.20;75.30
23147;DHT22;11742;53.532;-1.478;2023-03-14T17:51:25;12.10;75.20
23147;DHT22;11742;53.532;-1.478;2023-03-14T17:54:09;12.10;75.10
23147;DHT22;11742;53.532;-1.478;2023-03-14T17:56:53;12.10;75.10
23147;DHT22;11742;53.532;-1.478;2023-03-14T17:59:38;12.10;75.10
23147;DHT22;11742;53.532;-1.478;2023-03-14T18:02:22;12.00;74.90
23147;DHT22;11742;53.532;-1.478;2023-03-14T18:05:06;12.00;75.00
23147;DHT22;11742;53.532;-1.478;2023-03-14T18:07:51;12.00;75.30
23147;DHT22;11742;53.532;-1.478;2023-03-14T18:10:35;11.90;74.90
23147;DHT22;11742;53.532;-1.478;2023-03-14T18:13:19;11.90;75.00
23147;DHT22;11742;53.532;-1.478;2023-03-14T18:16:04;11.90;75.00
23147;DHT22;11742;53.532;-1.478;2023-03-14T18:18:49;11.80;75.00
23147;DHT22;11742;53.532;-1.478;2023-03-14T18:21:33;11.80;75.00
23147;DHT22;11742;53.532;-1.478;2023-03-14T18:24:19;11.80;75.10
23147;DHT22;11742;53.532;-1.478;2023-03-14T18:27:04;11.70;75.00